Aérodrome :
LOGIN :

S'inscrire | Disclaimer

   EN    FR    IT 

 










Légende :    VFR   VFR Marginal   IFR   IFR Intensif   IFR Très Intensif
Visi : 
Plafond : 
>= 8 km
>= 3000ft
5 à 8 km
1000 à 3000 ft
1500m à 5 km
500 à 1000 ft
800 à 1500m
200 à 500 ft
< 800m
< 200 ft
Symboles :   Orages  Brouillard  Fortes neiges  Fortes précipitations  Vent > 20 kt
SIGMETs :   Divers  Orages  Givrage  Turbulence  Onde Orograph.  Cendres Volcan.







- Altitude de l'aérodrome : 72 ft
- Code IATA : UDE


EHVK - Volkel Airbase

DERNIER METAR :
  • 141455Z AUTO 29007KT 240V010 9999 BKN030 BKN036 BKN040 22/14 Q1015 BLU

METARs EXPIRÉS :
  • 141425Z AUTO 29009KT 250V360 9999 OVC037 22/14 Q1015 BLU
  • 141355Z AUTO 29008KT 250V360 9999 BKN042 BKN046 BKN330 23/14 Q1015 BLU 27008KT 9999 SCT032 TEMPO 29009G19KT
  • 141325Z AUTO 27011KT 240V330 9999 BKN045 24/13 Q1015 BLU 27008KT 9999 SCT032 TEMPO 29009G19KT
  • 141255Z AUTO 28008KT 220V310 9999 BKN041 23/12 Q1015 BLU 27008KT 9999 SCT032 TEMPO 29009G19KT
  • 141225Z AUTO 28008KT 240V330 9999 BKN037 BKN041 25/14 Q1014 BLU 27008KT 9999 SCT032 TEMPO 29009G19KT

TAF TAF EHVK
Valide du 14 à 09h jusqu'au 14 à 21h UTC


140842Z 1409/1421 27006KT 9999 SCT025
PROB40
TEMPO 1410/1417 29009G19KT
Pas de NOTAMs connus pour ce terrain.



MET'MAP, la Météo Aéronautique d'un coup d'oeil ! - Copyright ORBIFLY Décembre 2007 - Disclaimer

ORBIFLY MET'MAP TEAM :

Programmation & Développement : Alexandra Zaïnal
Conception & Développement : Baudouin d'Aumeries
Co-Programmation & Développement : Marc-Olivier Méhu
Soutien technique & logistique : Manuel Goepfert

Contact : metmap@orbifly.com




SOURCES & CREDITS :

   NOAA